CheckWX is a tool to help pilots better visualize weather data.  It is not intended as a substitute for an official pre-flight weather briefing.

06:50:50 UTC

KERY METAR
Luce County Airport
Newberry, Michigan, USA
Current

16 mins ago

KERY 230635Z AUTO 35007KT 5SM -RA OVC003 03/02 A2987 RMK AO2 P0005 T00270015
Observed
Apr-23 @ 06:35 UTC
Wind
  • 350° at 7 KTS
Visibility
5 SM
Flight Rules
LIFR
Conditions
Light Rain
Cloud Levels
  • Overcast at 300' AGL
Temperature
C / 37°F
Dewpoint
C / 36°F
Humidity
93%
Altimeter
29.87" Hg
Pressure
1011.52 hPa
Current Rain
0.05"
Previous

35 mins ago

KERY 230616Z AUTO 35007KT 5SM -RA OVC003 03/02 A2988 RMK AO2 P0002 T00330021
Observed
Apr-23 @ 06:16 UTC
Wind
  • 350° at 7 KTS
Visibility
5 SM
Flight Rules
LIFR
Conditions
Light Rain
Cloud Levels
  • Overcast at 300' AGL
Temperature
C / 37°F
Dewpoint
C / 36°F
Humidity
93%
Altimeter
29.88" Hg
Pressure
1011.82 hPa
Current Rain
0.02"
Previous

55 mins ago

KERY 230556Z AUTO 35005KT 4SM UP OVC003 03/02 A2990 RMK AO2 P0012 60021 T00340021 10078 20032 401010032
Observed
Apr-23 @ 05:56 UTC
Wind
  • 350° at 5 KTS
Visibility
4 SM
Flight Rules
LIFR
Conditions
Unknown precipitation
Cloud Levels
  • Overcast at 300' AGL
Temperature
C / 37°F
Dewpoint
C / 36°F
Humidity
93%
Altimeter
29.9" Hg
Pressure
1012.52 hPa
Current Rain
0.12"